createdAt,value
2023-02-03T00:02:04.353Z,8.20
2023-02-03T00:06:13.116Z,11.30
2023-02-03T00:10:21.751Z,8.97
2023-02-03T00:14:30.511Z,7.93
2023-02-03T00:18:39.142Z,8.37
2023-02-03T00:22:47.888Z,10.30
2023-02-03T00:26:56.429Z,8.63
2023-02-03T00:31:05.255Z,9.20
2023-02-03T00:35:13.827Z,9.50
2023-02-03T00:39:22.647Z,8.63
2023-02-03T00:43:32.720Z,8.80
2023-02-03T00:47:41.284Z,10.60
2023-02-03T00:51:50.280Z,10.00
2023-02-03T00:55:58.971Z,8.90
2023-02-03T01:00:08.648Z,9.87
2023-02-03T01:04:17.263Z,9.63
2023-02-03T01:08:26.308Z,11.20
2023-02-03T01:12:34.866Z,10.57
2023-02-03T01:16:43.521Z,9.17
2023-02-03T01:20:52.069Z,10.30
2023-02-03T01:25:00.646Z,9.37
2023-02-03T01:29:09.324Z,8.70
2023-02-03T01:33:17.898Z,9.00
2023-02-03T01:37:26.526Z,9.53
2023-02-03T01:41:37.526Z,8.20
2023-02-03T01:45:47.386Z,8.30
2023-02-03T01:50:13.903Z,9.37
2023-02-03T01:54:26.440Z,7.47
2023-02-03T01:58:39.228Z,8.63
2023-02-03T02:02:51.962Z,7.97
2023-02-03T02:07:00.780Z,7.97
2023-02-03T02:11:09.571Z,7.53
2023-02-03T02:15:18.541Z,7.37
2023-02-03T02:19:38.959Z,8.70
2023-02-03T02:23:53.656Z,8.90
2023-02-03T02:28:16.888Z,7.80
2023-02-03T02:37:01.732Z,6.93
2023-02-03T02:41:13.379Z,5.20
2023-02-03T02:45:27.970Z,6.57
2023-02-03T02:49:39.619Z,6.50
2023-02-03T02:53:51.244Z,6.33
2023-02-03T02:58:02.859Z,5.30
2023-02-03T03:02:12.385Z,5.37
2023-02-03T03:06:26.970Z,5.30
2023-02-03T03:10:38.068Z,5.87
2023-02-03T03:14:49.702Z,4.70
2023-02-03T03:19:01.349Z,5.77
2023-02-03T03:23:12.972Z,5.00
2023-02-03T03:27:26.923Z,4.70
2023-02-03T03:31:35.823Z,4.70
2023-02-03T03:35:47.513Z,4.50
2023-02-03T03:40:18.291Z,5.03
2023-02-03T03:44:29.935Z,4.97
2023-02-03T03:48:41.586Z,4.30
2023-02-03T03:52:52.811Z,4.10
2023-02-03T03:57:16.400Z,4.10
2023-02-03T04:01:25.476Z,3.80
2023-02-03T04:05:35.250Z,5.20
2023-02-03T04:09:43.897Z,4.10
2023-02-03T04:13:52.421Z,3.73
2023-02-03T04:18:03.864Z,3.50
2023-02-03T04:22:12.419Z,4.50
2023-02-03T04:26:20.994Z,4.60
2023-02-03T04:30:29.910Z,4.20
2023-02-03T04:34:38.594Z,4.20
2023-02-03T04:38:48.936Z,3.67
2023-02-03T04:42:57.489Z,4.57
2023-02-03T04:47:06.118Z,3.90
2023-02-03T04:51:16.634Z,4.17
2023-02-03T04:55:24.878Z,4.20
2023-02-03T04:59:33.984Z,3.93
2023-02-03T05:03:42.558Z,3.80
2023-02-03T05:07:51.105Z,3.53
2023-02-03T05:12:01.377Z,4.47
2023-02-03T05:16:12.949Z,3.70
2023-02-03T05:20:22.255Z,3.40
2023-02-03T05:24:30.897Z,3.70
2023-02-03T05:28:39.631Z,3.60
2023-02-03T05:32:49.258Z,3.80
2023-02-03T05:36:57.885Z,3.10
2023-02-03T05:41:23.907Z,3.30
2023-02-03T05:45:35.489Z,3.80
2023-02-03T05:49:44.037Z,2.97
2023-02-03T05:53:53.776Z,2.80
2023-02-03T05:58:02.574Z,3.60
2023-02-03T06:02:11.146Z,4.60
2023-02-03T06:06:19.691Z,3.50
2023-02-03T06:10:28.912Z,3.50
2023-02-03T06:14:37.920Z,3.27
2023-02-03T06:18:46.493Z,3.30
2023-02-03T06:22:55.037Z,3.80
2023-02-03T06:27:03.863Z,4.30
2023-02-03T06:31:12.498Z,3.77
2023-02-03T06:35:21.168Z,4.17
2023-02-03T06:39:29.743Z,3.17
2023-02-03T06:43:38.307Z,2.87
2023-02-03T06:47:47.119Z,3.00
2023-02-03T06:51:55.691Z,3.47
2023-02-03T06:56:04.424Z,3.40
2023-02-03T07:00:15.573Z,3.40
2023-02-03T07:04:24.510Z,2.47
2023-02-03T07:08:33.068Z,3.50
2023-02-03T07:12:41.627Z,2.80
2023-02-03T07:16:50.190Z,3.70
2023-02-03T07:21:02.517Z,3.70
2023-02-03T07:25:11.043Z,3.07
2023-02-03T07:29:21.175Z,3.53
2023-02-03T07:33:30.169Z,2.83
2023-02-03T07:37:38.690Z,3.83
2023-02-03T07:41:48.809Z,3.73
2023-02-03T07:46:09.352Z,2.70
2023-02-03T07:50:18.465Z,3.43
2023-02-03T07:54:27.094Z,3.60
2023-02-03T07:58:35.654Z,3.00
2023-02-03T08:02:44.855Z,2.57
2023-02-03T08:06:55.246Z,3.20
2023-02-03T08:11:04.017Z,3.33
2023-02-03T08:15:13.238Z,2.87
2023-02-03T08:19:23.079Z,2.53
2023-02-03T08:23:32.457Z,3.03
2023-02-03T08:27:41.614Z,3.20
2023-02-03T08:31:50.334Z,3.90
2023-02-03T08:36:00.619Z,4.20
2023-02-03T08:40:11.752Z,3.73
2023-02-03T08:44:20.399Z,2.80
2023-02-03T08:48:28.960Z,2.73
2023-02-03T08:52:39.127Z,3.57
2023-02-03T08:56:47.926Z,3.50
2023-02-03T09:00:56.508Z,3.20
2023-02-03T09:05:05.952Z,3.43
2023-02-03T09:09:15.312Z,3.80
2023-02-03T09:13:27.592Z,3.20
2023-02-03T09:17:36.150Z,2.93
2023-02-03T09:21:46.191Z,3.30
2023-02-03T09:25:56.015Z,4.77
2023-02-03T09:30:06.380Z,2.90
2023-02-03T09:34:16.523Z,3.40
2023-02-03T09:38:26.342Z,3.70
2023-02-03T09:42:52.691Z,3.50
2023-02-03T09:47:04.656Z,3.03
2023-02-03T09:51:26.254Z,3.90
2023-02-03T09:55:43.855Z,3.20
2023-02-03T09:59:54.678Z,3.70
2023-02-03T10:04:18.961Z,4.00
2023-02-03T10:08:30.694Z,4.57
2023-02-03T10:13:07.590Z,3.60
2023-02-03T10:17:22.136Z,3.63
2023-02-03T10:21:36.652Z,4.00
2023-02-03T10:25:49.636Z,4.10
2023-02-03T10:30:24.379Z,3.37
2023-02-03T10:34:33.038Z,3.40
2023-02-03T10:39:19.016Z,3.77
2023-02-03T10:43:43.975Z,3.77
2023-02-03T10:47:55.604Z,4.17
2023-02-03T10:52:04.838Z,5.30
2023-02-03T10:56:18.128Z,4.27
2023-02-03T11:00:36.111Z,3.60
2023-02-03T11:04:44.757Z,3.27
2023-02-03T11:08:53.970Z,4.63
2023-02-03T11:13:22.698Z,3.77
2023-02-03T11:17:32.987Z,3.93
2023-02-03T11:21:44.554Z,4.00
2023-02-03T11:25:53.372Z,4.73
2023-02-03T11:30:23.701Z,3.90
2023-02-03T11:34:39.240Z,3.37
2023-02-03T11:38:47.901Z,3.80
2023-02-03T11:42:59.551Z,4.70
2023-02-03T11:47:13.809Z,3.87
2023-02-03T11:51:34.803Z,4.63
2023-02-03T11:56:08.526Z,4.27
2023-02-03T12:00:33.482Z,4.40
2023-02-03T12:05:01.507Z,4.07
2023-02-03T12:09:32.091Z,3.83
2023-02-03T12:13:43.743Z,3.83
2023-02-03T12:18:03.878Z,4.17
2023-02-03T12:22:18.494Z,4.20
2023-02-03T12:26:30.783Z,4.53
2023-02-03T12:30:48.479Z,3.40
2023-02-03T12:35:03.102Z,3.87
2023-02-03T12:39:17.483Z,3.67
2023-02-03T12:43:50.688Z,4.53
2023-02-03T12:48:16.981Z,4.23
2023-02-03T12:52:43.713Z,5.30
2023-02-03T12:56:58.115Z,4.50
2023-02-03T13:01:39.579Z,4.90
2023-02-03T13:06:00.902Z,3.87
2023-02-03T13:10:39.326Z,3.90
2023-02-03T13:14:59.578Z,4.40
2023-02-03T13:19:13.993Z,4.07
2023-02-03T13:23:23.766Z,4.17
2023-02-03T13:27:59.337Z,4.17
2023-02-03T13:32:22.886Z,3.80
2023-02-03T13:36:55.583Z,3.60
2023-02-03T13:41:14.022Z,3.97
2023-02-03T13:45:31.192Z,3.70
2023-02-03T13:49:40.188Z,3.87
2023-02-03T13:53:51.860Z,3.60
2023-02-03T13:58:00.781Z,4.30
2023-02-03T14:02:21.356Z,3.63
2023-02-03T14:06:42.977Z,3.63
2023-02-03T14:11:10.664Z,3.53
2023-02-03T14:15:32.024Z,3.23
2023-02-03T14:19:52.370Z,3.20
2023-02-03T14:24:06.891Z,3.87
2023-02-03T14:28:18.668Z,2.90
2023-02-03T14:32:30.324Z,3.03
2023-02-03T14:40:58.341Z,3.20
2023-02-03T14:45:32.300Z,3.27
2023-02-03T14:50:09.565Z,3.30
2023-02-03T14:54:30.010Z,3.80
2023-02-03T14:58:50.680Z,4.13
2023-02-03T15:03:11.469Z,4.13
2023-02-03T15:07:38.524Z,3.57
2023-02-03T15:11:47.903Z,3.50
2023-02-03T15:15:59.579Z,3.47
2023-02-03T15:20:22.822Z,3.73
2023-02-03T15:24:34.459Z,3.40
2023-02-03T15:28:43.098Z,3.37
2023-02-03T15:33:15.791Z,4.60
2023-02-03T15:37:32.993Z,4.30
2023-02-03T15:41:41.883Z,4.13
2023-02-03T15:46:13.155Z,2.90
2023-02-03T15:50:45.552Z,5.93
2023-02-03T15:54:57.453Z,4.27
2023-02-03T15:59:08.816Z,3.73
2023-02-03T16:03:21.352Z,4.43
2023-02-03T16:07:31.355Z,3.47
2023-02-03T16:11:41.634Z,3.97
2023-02-03T16:16:08.407Z,4.63
2023-02-03T16:20:20.132Z,4.60
2023-02-03T16:24:34.563Z,3.83
2023-02-03T16:29:01.391Z,4.40
2023-02-03T16:33:30.883Z,4.67
2023-02-03T16:38:02.725Z,4.03
2023-02-03T16:42:37.077Z,4.00
2023-02-03T16:47:05.538Z,3.93
2023-02-03T16:51:16.925Z,5.63
2023-02-03T16:55:25.563Z,3.70
2023-02-03T16:59:34.732Z,4.37
2023-02-03T17:03:44.378Z,5.43
2023-02-03T17:07:52.958Z,4.40
2023-02-03T17:12:02.210Z,5.60
2023-02-03T17:16:13.894Z,4.40
2023-02-03T17:20:22.615Z,4.50
2023-02-03T17:24:31.163Z,4.03
2023-02-03T17:28:42.956Z,4.53
2023-02-03T17:32:51.564Z,3.73
2023-02-03T17:37:00.141Z,4.10
2023-02-03T17:54:35.116Z,4.50
2023-02-03T17:58:44.347Z,5.10
2023-02-03T18:02:53.257Z,4.30
2023-02-03T18:07:01.993Z,3.80
2023-02-03T18:11:11.188Z,5.03
2023-02-03T18:15:19.806Z,8.60
2023-02-03T18:19:28.391Z,4.83
2023-02-03T18:23:38.075Z,6.33
2023-02-03T18:27:46.742Z,5.33
2023-02-03T18:32:06.773Z,4.27
2023-02-03T18:36:22.631Z,4.23
2023-02-03T18:40:48.427Z,5.33
2023-02-03T18:45:04.690Z,4.10
2023-02-03T18:49:28.207Z,3.73
2023-02-03T18:58:39.087Z,4.53
2023-02-03T19:03:06.290Z,4.80
2023-02-03T19:07:20.653Z,4.60
2023-02-03T19:11:37.642Z,4.27
2023-02-03T19:15:58.824Z,4.37
2023-02-03T19:20:19.814Z,4.23
2023-02-03T19:24:31.976Z,4.10
2023-02-03T19:29:03.110Z,4.50
2023-02-03T19:33:11.755Z,4.37
2023-02-03T19:37:20.365Z,4.40
2023-02-03T19:41:30.802Z,4.50
2023-02-03T19:45:39.619Z,5.33
2023-02-03T19:49:48.174Z,3.97
2023-02-03T19:53:58.365Z,3.63
2023-02-03T19:58:06.932Z,4.25
2023-02-03T20:02:15.889Z,3.60
2023-02-03T20:06:25.540Z,4.20
2023-02-03T20:10:34.233Z,3.90
2023-02-03T20:14:42.793Z,3.87
2023-02-03T20:18:51.353Z,3.53
2023-02-03T20:23:00.312Z,3.83
2023-02-03T20:27:08.928Z,4.17
2023-02-03T20:31:17.562Z,3.43
2023-02-03T20:35:26.389Z,5.40
2023-02-03T20:39:35.171Z,3.90
2023-02-03T20:43:43.716Z,4.23
2023-02-03T20:47:52.880Z,3.73
2023-02-03T20:52:01.419Z,3.93
2023-02-03T20:56:18.466Z,3.70
2023-02-03T21:00:28.030Z,4.53
2023-02-03T21:04:54.442Z,3.83
2023-02-03T21:09:16.908Z,3.73
2023-02-03T21:13:30.669Z,3.30
2023-02-03T21:17:39.281Z,3.63
2023-02-03T21:21:49.484Z,4.23
2023-02-03T21:25:58.078Z,3.57
2023-02-03T21:30:26.334Z,3.77
2023-02-03T21:34:37.490Z,3.47
2023-02-03T21:38:49.248Z,4.20
2023-02-03T21:42:58.738Z,3.30
2023-02-03T21:47:13.082Z,3.63
2023-02-03T21:51:28.550Z,4.87
2023-02-03T21:55:42.358Z,4.40
2023-02-03T21:59:50.912Z,3.47
2023-02-03T22:04:01.408Z,3.00
2023-02-03T22:08:22.098Z,4.70
2023-02-03T22:12:30.645Z,4.20
2023-02-03T22:16:39.253Z,3.87
2023-02-03T22:20:47.939Z,3.90
2023-02-03T22:24:56.499Z,3.70
2023-02-03T22:29:05.527Z,4.73
2023-02-03T22:33:14.105Z,4.07
2023-02-03T22:37:22.665Z,4.70
2023-02-03T22:41:31.229Z,3.83
2023-02-03T22:45:39.804Z,4.53
2023-02-03T22:49:48.331Z,4.37
2023-02-03T22:53:56.885Z,3.83
2023-02-03T22:58:05.993Z,4.00
2023-02-03T23:02:14.603Z,3.90
2023-02-03T23:06:23.175Z,3.70
2023-02-03T23:10:32.194Z,4.70
2023-02-03T23:14:40.990Z,3.60
2023-02-03T23:18:49.564Z,3.93
2023-02-03T23:22:58.125Z,3.70
2023-02-03T23:27:07.353Z,4.10
2023-02-03T23:31:16.567Z,4.00
2023-02-03T23:35:42.863Z,3.57
2023-02-03T23:39:51.765Z,4.00
2023-02-03T23:44:03.439Z,4.50
2023-02-03T23:48:17.949Z,3.62
2023-02-03T23:52:26.527Z,5.20
2023-02-03T23:56:35.121Z,4.20
